createdAt,value
2018-06-14T00:00:02.750Z,12.57
2018-06-14T00:02:31.093Z,12.80
2018-06-14T00:04:59.401Z,11.23
2018-06-14T00:07:27.797Z,13.30
2018-06-14T00:09:56.133Z,13.43
2018-06-14T00:12:24.443Z,15.78
2018-06-14T00:14:52.772Z,17.50
2018-06-14T00:17:21.127Z,14.97
2018-06-14T00:19:49.497Z,13.37
2018-06-14T00:22:18.041Z,15.27
2018-06-14T00:24:46.381Z,16.07
2018-06-14T00:27:14.787Z,14.53
2018-06-14T00:29:43.375Z,12.43
2018-06-14T00:32:11.868Z,16.83
2018-06-14T00:34:40.280Z,16.67
2018-06-14T00:37:08.646Z,15.87
2018-06-14T00:39:37.113Z,15.77
2018-06-14T00:42:05.423Z,18.80
2018-06-14T00:44:34.129Z,15.57
2018-06-14T00:47:02.498Z,17.60
2018-06-14T00:49:30.795Z,17.43
2018-06-14T00:51:59.281Z,16.60
2018-06-14T00:54:28.002Z,16.60
2018-06-14T00:57:07.516Z,16.63
2018-06-14T00:59:35.891Z,16.40
2018-06-14T01:02:04.379Z,18.13
2018-06-14T01:04:32.741Z,17.50
2018-06-14T01:07:01.122Z,18.87
2018-06-14T01:09:29.497Z,16.00
2018-06-14T01:11:57.957Z,20.40
2018-06-14T01:14:26.309Z,17.23
2018-06-14T01:16:54.597Z,16.83
2018-06-14T01:19:22.935Z,19.03
2018-06-14T01:21:51.230Z,17.87
2018-06-14T01:24:19.536Z,21.10
2018-06-14T01:26:47.850Z,17.50
2018-06-14T01:29:16.389Z,21.97
2018-06-14T01:31:45.346Z,20.40
2018-06-14T01:34:13.840Z,21.10
2018-06-14T01:36:42.235Z,19.40
2018-06-14T01:39:10.741Z,19.50
2018-06-14T01:41:39.178Z,18.67
2018-06-14T01:44:07.497Z,18.73
2018-06-14T01:46:35.866Z,22.37
2018-06-14T01:49:04.346Z,19.03
2018-06-14T01:51:32.745Z,20.03
2018-06-14T01:54:01.587Z,19.67
2018-06-14T01:56:30.021Z,19.27
2018-06-14T01:58:58.425Z,22.23
2018-06-14T02:01:26.753Z,20.13
2018-06-14T02:03:55.150Z,20.37
2018-06-14T02:06:24.192Z,18.23
2018-06-14T02:08:52.477Z,20.63
2018-06-14T02:11:20.778Z,19.63
2018-06-14T02:13:49.093Z,21.23
2018-06-14T02:16:17.518Z,20.80
2018-06-14T02:18:46.512Z,21.87
2018-06-14T02:21:14.830Z,18.70
2018-06-14T02:23:43.207Z,22.23
2018-06-14T02:26:11.535Z,24.17
2018-06-14T02:28:39.995Z,22.03
2018-06-14T02:31:08.342Z,22.70
2018-06-14T02:33:36.696Z,22.03
2018-06-14T02:36:05.146Z,23.40
2018-06-14T02:38:33.496Z,24.03
2018-06-14T02:41:01.578Z,24.40
2018-06-14T02:43:29.881Z,26.17
2018-06-14T02:45:58.189Z,26.30
2018-06-14T02:48:26.585Z,22.93
2018-06-14T02:50:54.930Z,21.80
2018-06-14T02:53:23.237Z,23.27
2018-06-14T02:55:51.652Z,23.50
2018-06-14T02:58:19.971Z,25.87
2018-06-14T03:00:48.329Z,24.23
2018-06-14T03:03:16.889Z,23.90
2018-06-14T03:05:45.445Z,24.43
2018-06-14T03:08:13.794Z,23.07
2018-06-14T03:10:42.257Z,29.17
2018-06-14T03:13:10.556Z,23.63
2018-06-14T03:15:38.873Z,23.00
2018-06-14T03:18:07.287Z,22.87
2018-06-14T03:20:35.697Z,28.77
2018-06-14T03:23:04.016Z,25.37
2018-06-14T03:25:32.194Z,23.40
2018-06-14T03:28:01.241Z,24.53
2018-06-14T03:30:29.558Z,22.83
2018-06-14T03:32:58.044Z,23.60
2018-06-14T03:35:26.393Z,28.33
2018-06-14T03:37:55.093Z,23.03
2018-06-14T03:40:23.499Z,26.73
2018-06-14T03:42:51.922Z,24.87
2018-06-14T03:45:21.573Z,24.43
2018-06-14T03:47:50.844Z,23.00
2018-06-14T03:50:19.158Z,26.63
2018-06-14T03:52:47.610Z,24.17
2018-06-14T03:55:16.026Z,23.30
2018-06-14T03:57:44.325Z,21.07
2018-06-14T04:00:12.642Z,24.27
2018-06-14T04:02:41.035Z,27.00
2018-06-14T04:05:10.169Z,22.47
2018-06-14T04:07:38.635Z,22.97
2018-06-14T04:10:07.713Z,23.37
2018-06-14T04:12:36.124Z,22.40
2018-06-14T04:15:04.538Z,27.37
2018-06-14T04:17:32.861Z,21.10
2018-06-14T04:20:01.209Z,22.73
2018-06-14T04:22:29.541Z,23.17
2018-06-14T04:24:57.990Z,22.63
2018-06-14T04:27:26.364Z,19.53
2018-06-14T04:29:54.745Z,21.40
2018-06-14T04:32:23.262Z,22.37
2018-06-14T04:34:51.706Z,20.33
2018-06-14T04:37:20.034Z,20.70
2018-06-14T04:39:48.629Z,18.10
2018-06-14T04:42:16.995Z,19.27
2018-06-14T04:44:45.392Z,20.33
2018-06-14T04:47:13.709Z,19.40
2018-06-14T04:49:42.124Z,18.17
2018-06-14T04:52:10.449Z,23.87
2018-06-14T04:54:38.949Z,21.80
2018-06-14T04:57:07.332Z,21.40
2018-06-14T04:59:35.622Z,21.87
2018-06-14T05:02:03.933Z,18.93
2018-06-14T05:04:32.209Z,21.70
2018-06-14T05:07:01.038Z,21.10
2018-06-14T05:09:29.432Z,22.10
2018-06-14T05:11:57.799Z,22.67
2018-06-14T05:14:26.118Z,19.63
2018-06-14T05:16:54.660Z,21.20
2018-06-14T05:19:22.992Z,21.10
2018-06-14T05:21:51.825Z,19.93
2018-06-14T05:24:20.155Z,24.07
2018-06-14T05:26:48.510Z,20.17
2018-06-14T05:29:16.985Z,20.13
2018-06-14T05:31:45.321Z,20.80
2018-06-14T05:34:13.629Z,23.00
2018-06-14T05:36:41.951Z,22.20
2018-06-14T05:39:11.899Z,21.23
2018-06-14T05:41:40.830Z,22.20
2018-06-14T05:44:09.162Z,21.83
2018-06-14T05:46:37.617Z,21.63
2018-06-14T05:49:06.330Z,19.93
2018-06-14T05:51:34.643Z,21.03
2018-06-14T05:54:03.162Z,26.47
2018-06-14T05:56:31.486Z,24.07
2018-06-14T05:59:01.251Z,22.43
2018-06-14T06:01:34.804Z,21.73
2018-06-14T06:04:03.117Z,19.13
2018-06-14T06:06:31.455Z,17.07
2018-06-14T06:08:59.813Z,15.97
2018-06-14T06:11:28.966Z,18.57
2018-06-14T06:13:58.503Z,17.43
2018-06-14T06:16:26.952Z,17.60
2018-06-14T06:18:55.018Z,19.53
2018-06-14T06:21:23.061Z,15.50
2018-06-14T06:23:51.369Z,19.67
2018-06-14T06:26:19.484Z,18.20
2018-06-14T06:28:47.821Z,20.10
2018-06-14T06:31:16.458Z,14.07
2018-06-14T06:33:44.754Z,14.40
2018-06-14T06:36:13.095Z,16.07
2018-06-14T06:38:41.923Z,16.33
2018-06-14T06:41:10.218Z,17.97
2018-06-14T06:43:38.929Z,17.00
2018-06-14T06:46:08.088Z,20.70
2018-06-14T06:48:36.438Z,18.57
2018-06-14T06:51:04.722Z,18.73
2018-06-14T06:53:33.401Z,14.97
2018-06-14T06:56:01.685Z,18.30
2018-06-14T06:58:30.957Z,19.37
2018-06-14T07:00:59.250Z,13.77
2018-06-14T07:03:27.588Z,13.37
2018-06-14T07:05:55.948Z,12.97
2018-06-14T07:08:24.426Z,14.87
2018-06-14T07:10:52.742Z,10.67
2018-06-14T07:13:21.062Z,11.47
2018-06-14T07:15:49.456Z,13.67
2018-06-14T07:18:17.757Z,14.03
2018-06-14T07:20:46.017Z,14.17
2018-06-14T07:23:14.679Z,12.10
2018-06-14T07:25:42.953Z,11.37
2018-06-14T07:28:11.249Z,17.10
2018-06-14T07:30:39.536Z,20.23
2018-06-14T07:33:07.813Z,11.43
2018-06-14T07:35:36.117Z,12.03
2018-06-14T07:38:04.180Z,12.50
2018-06-14T07:40:32.621Z,10.70
2018-06-14T07:43:01.025Z,11.23
2018-06-14T07:45:30.018Z,10.93
2018-06-14T07:47:58.324Z,11.73
2018-06-14T07:50:26.701Z,14.50
2018-06-14T07:52:55.122Z,11.00
2018-06-14T07:55:23.433Z,12.20
2018-06-14T07:57:51.763Z,12.20
2018-06-14T08:00:20.094Z,8.90
2018-06-14T08:02:48.384Z,8.93
2018-06-14T08:05:16.727Z,11.23
2018-06-14T08:07:45.042Z,12.00
2018-06-14T08:10:13.354Z,13.67
2018-06-14T08:12:41.750Z,10.53
2018-06-14T08:15:10.133Z,8.50
2018-06-14T08:17:38.469Z,10.87
2018-06-14T08:20:06.958Z,8.23
2018-06-14T08:22:35.277Z,8.07
2018-06-14T08:25:03.557Z,9.43
2018-06-14T08:27:31.802Z,9.37
2018-06-14T08:30:00.149Z,10.40
2018-06-14T08:32:28.488Z,8.87
2018-06-14T08:34:56.817Z,10.50
2018-06-14T08:37:30.423Z,8.10
2018-06-14T08:39:58.921Z,9.67
2018-06-14T08:42:27.257Z,9.67
2018-06-14T08:44:56.808Z,8.13
2018-06-14T08:47:25.193Z,11.87
2018-06-14T08:49:53.526Z,7.77
2018-06-14T08:52:21.890Z,9.90
2018-06-14T08:54:50.213Z,9.80
2018-06-14T08:57:18.569Z,10.57
2018-06-14T08:59:46.745Z,8.70
2018-06-14T09:02:16.169Z,7.73
2018-06-14T09:04:44.541Z,10.70
2018-06-14T09:07:12.946Z,11.33
2018-06-14T09:09:41.293Z,11.07
2018-06-14T09:12:09.609Z,8.67
2018-06-14T09:14:38.415Z,8.57
2018-06-14T09:17:06.797Z,7.43
2018-06-14T09:19:35.181Z,6.53
2018-06-14T09:22:03.521Z,8.77
2018-06-14T09:24:31.961Z,7.23
2018-06-14T09:27:00.417Z,7.60
2018-06-14T09:29:28.729Z,9.17
2018-06-14T09:31:56.829Z,8.63
2018-06-14T09:34:25.160Z,9.60
2018-06-14T09:36:53.439Z,12.20
2018-06-14T09:39:21.760Z,12.27
2018-06-14T09:41:50.033Z,9.73
2018-06-14T09:44:19.344Z,10.53
2018-06-14T09:46:47.594Z,11.00
2018-06-14T09:49:17.081Z,12.77
2018-06-14T09:51:47.113Z,10.50
2018-06-14T09:54:15.449Z,11.33
2018-06-14T09:56:44.137Z,9.47
2018-06-14T09:59:12.481Z,10.87
2018-06-14T10:01:40.818Z,11.47
2018-06-14T10:04:09.121Z,10.43
2018-06-14T10:06:37.476Z,16.63
2018-06-14T10:09:07.940Z,19.93
2018-06-14T10:11:37.539Z,15.47
2018-06-14T10:14:05.857Z,13.23
2018-06-14T10:16:35.106Z,6.60
2018-06-14T10:19:03.765Z,9.70
2018-06-14T10:21:32.112Z,9.30
2018-06-14T10:24:00.393Z,11.73
2018-06-14T10:26:28.742Z,10.40
2018-06-14T10:28:57.069Z,9.97
2018-06-14T10:31:25.360Z,6.60
2018-06-14T10:33:53.717Z,11.00
2018-06-14T10:36:22.057Z,10.63
2018-06-14T10:38:50.361Z,8.97
2018-06-14T10:41:18.640Z,8.23
2018-06-14T10:43:47.054Z,8.10
2018-06-14T10:46:15.376Z,9.43
2018-06-14T10:48:43.889Z,9.60
2018-06-14T10:51:12.250Z,9.07
2018-06-14T10:53:40.575Z,9.00
2018-06-14T10:56:08.913Z,8.30
2018-06-14T10:58:37.351Z,12.00
2018-06-14T11:01:05.651Z,8.40
2018-06-14T11:03:35.127Z,9.07
2018-06-14T11:06:03.518Z,9.83
2018-06-14T11:08:31.802Z,10.60
2018-06-14T11:11:00.105Z,11.50
2018-06-14T11:13:28.410Z,7.73
2018-06-14T11:15:56.718Z,9.83
2018-06-14T11:18:25.099Z,9.60
2018-06-14T11:20:54.359Z,11.13
2018-06-14T11:23:22.697Z,10.50
2018-06-14T11:25:51.034Z,9.70
2018-06-14T11:28:19.460Z,12.80
2018-06-14T11:30:47.773Z,9.30
2018-06-14T11:33:16.116Z,11.20
2018-06-14T11:35:44.646Z,8.60
2018-06-14T11:38:12.955Z,10.90
2018-06-14T11:40:41.297Z,11.53
2018-06-14T11:43:09.621Z,9.17
2018-06-14T11:45:37.953Z,8.67
2018-06-14T11:48:06.261Z,13.17
2018-06-14T11:50:34.749Z,11.33
2018-06-14T11:53:03.133Z,10.90
2018-06-14T11:55:31.527Z,13.60
2018-06-14T11:57:59.901Z,10.30
2018-06-14T12:00:28.210Z,12.10
2018-06-14T12:02:56.558Z,14.90
2018-06-14T12:05:24.592Z,11.93
2018-06-14T12:07:52.942Z,11.63
2018-06-14T12:10:21.315Z,10.37
2018-06-14T12:12:49.654Z,11.43
2018-06-14T12:15:18.061Z,14.23
2018-06-14T12:17:46.387Z,12.53
2018-06-14T12:20:15.433Z,13.23
2018-06-14T12:22:43.850Z,13.10
2018-06-14T12:25:12.197Z,10.43
2018-06-14T12:27:40.501Z,11.60
2018-06-14T12:30:08.805Z,11.20
2018-06-14T12:32:37.129Z,11.37
2018-06-14T12:35:05.477Z,13.27
2018-06-14T12:37:33.795Z,10.07
2018-06-14T12:40:02.132Z,14.63
2018-06-14T12:42:30.617Z,13.37
2018-06-14T12:44:58.645Z,10.83
2018-06-14T12:47:27.091Z,12.80
2018-06-14T12:49:55.573Z,10.43
2018-06-14T12:52:23.997Z,9.73
2018-06-14T12:54:52.266Z,8.73
2018-06-14T12:57:20.666Z,9.87
2018-06-14T12:59:48.704Z,11.20
2018-06-14T13:02:17.011Z,10.50
2018-06-14T13:04:45.461Z,11.03
2018-06-14T13:07:13.871Z,11.17
2018-06-14T13:09:42.294Z,11.87
2018-06-14T13:12:10.678Z,10.67
2018-06-14T13:14:39.139Z,9.47
2018-06-14T13:17:07.487Z,8.53
2018-06-14T13:19:36.169Z,9.27
2018-06-14T13:22:05.378Z,12.50
2018-06-14T13:24:41.597Z,9.50
2018-06-14T13:27:11.821Z,10.27
2018-06-14T13:29:40.578Z,10.10
2018-06-14T13:32:09.084Z,11.20
2018-06-14T13:34:37.996Z,9.20
2018-06-14T13:37:06.325Z,9.80
2018-06-14T13:39:34.717Z,10.77
2018-06-14T13:42:03.433Z,10.97
2018-06-14T13:44:31.749Z,10.10
2018-06-14T13:47:00.240Z,9.33
2018-06-14T13:49:29.075Z,12.10
2018-06-14T13:51:57.417Z,9.37
2018-06-14T13:54:25.810Z,9.97
2018-06-14T13:56:54.221Z,14.63
2018-06-14T13:59:22.499Z,11.63
2018-06-14T14:01:50.824Z,11.57
2018-06-14T14:04:19.182Z,11.47
2018-06-14T14:06:47.511Z,12.50
2018-06-14T14:09:16.013Z,12.30
2018-06-14T14:11:44.378Z,11.43
2018-06-14T14:14:12.725Z,10.80
2018-06-14T14:16:41.201Z,15.20
2018-06-14T14:19:09.990Z,8.23
2018-06-14T14:21:38.206Z,9.23
2018-06-14T14:24:06.954Z,11.60
2018-06-14T14:26:35.332Z,11.30
2018-06-14T14:29:03.626Z,13.07
2018-06-14T14:31:32.042Z,13.07
2018-06-14T14:34:00.334Z,12.13
2018-06-14T14:36:28.694Z,11.57
2018-06-14T14:38:57.336Z,9.93
2018-06-14T14:41:25.689Z,11.23
2018-06-14T14:43:54.169Z,11.70
2018-06-14T14:46:22.597Z,9.83
2018-06-14T14:48:51.014Z,10.70
2018-06-14T14:51:19.293Z,12.83
2018-06-14T14:53:47.738Z,10.73
2018-06-14T14:56:16.073Z,11.50
2018-06-14T14:58:44.361Z,10.77
2018-06-14T15:01:12.827Z,12.53
2018-06-14T15:03:41.161Z,12.77
2018-06-14T15:06:09.493Z,17.67
2018-06-14T15:08:37.895Z,14.63
2018-06-14T15:11:05.961Z,11.90
2018-06-14T15:13:34.030Z,12.57
2018-06-14T15:16:02.085Z,12.33
2018-06-14T15:18:30.435Z,15.13
2018-06-14T15:20:58.826Z,16.33
2018-06-14T15:23:28.237Z,15.83
2018-06-14T15:25:57.241Z,14.63
2018-06-14T15:28:25.911Z,14.13
2018-06-14T15:30:54.354Z,17.43
2018-06-14T15:33:22.657Z,17.03
2018-06-14T15:35:50.990Z,19.83
2018-06-14T15:38:19.522Z,16.90
2018-06-14T15:40:47.885Z,15.47
2018-06-14T15:43:16.255Z,16.53
2018-06-14T15:45:44.640Z,16.37
2018-06-14T15:48:12.982Z,13.33
2018-06-14T15:50:41.357Z,18.73
2018-06-14T15:53:09.674Z,16.90
2018-06-14T15:56:02.575Z,17.87
2018-06-14T15:58:31.863Z,18.67
2018-06-14T16:01:00.291Z,19.70
2018-06-14T16:03:28.597Z,19.17
2018-06-14T16:05:56.961Z,19.00
2018-06-14T16:08:25.257Z,21.53
2018-06-14T16:10:54.119Z,17.13
2018-06-14T16:13:22.495Z,19.20
2018-06-14T16:15:50.963Z,20.63
2018-06-14T16:18:19.300Z,20.23
2018-06-14T16:20:48.693Z,22.03
2018-06-14T16:23:17.089Z,20.30
2018-06-14T16:25:45.530Z,20.47
2018-06-14T16:28:14.112Z,21.73
2018-06-14T16:30:42.580Z,20.33
2018-06-14T16:33:10.985Z,21.30
2018-06-14T16:35:39.357Z,23.20
2018-06-14T16:38:07.681Z,20.70
2018-06-14T16:40:35.991Z,21.90
2018-06-14T16:43:04.305Z,20.17
2018-06-14T16:45:32.681Z,22.43
2018-06-14T16:48:01.193Z,20.83
2018-06-14T16:50:30.627Z,22.50
2018-06-14T16:52:58.937Z,20.57
2018-06-14T16:55:27.289Z,23.00
2018-06-14T16:57:55.773Z,23.27
2018-06-14T17:00:24.381Z,22.73
2018-06-14T17:02:52.721Z,22.57
2018-06-14T17:05:21.207Z,19.47
2018-06-14T17:07:49.393Z,23.83
2018-06-14T17:10:17.734Z,22.90
2018-06-14T17:12:46.093Z,22.50
2018-06-14T17:15:14.422Z,21.23
2018-06-14T17:17:43.715Z,21.23
2018-06-14T17:20:12.870Z,23.33
2018-06-14T17:22:41.303Z,23.33
2018-06-14T17:25:10.418Z,22.73
2018-06-14T17:27:38.759Z,24.30
2018-06-14T17:30:07.994Z,25.73
2018-06-14T17:32:36.767Z,25.10
2018-06-14T17:35:05.301Z,26.67
2018-06-14T17:37:33.821Z,23.97
2018-06-14T17:40:01.874Z,24.63
2018-06-14T17:42:30.234Z,27.70
2018-06-14T17:44:58.699Z,28.70
2018-06-14T17:47:27.098Z,27.00
2018-06-14T17:49:55.502Z,22.13
2018-06-14T17:52:23.821Z,22.27
2018-06-14T17:54:52.142Z,27.43
2018-06-14T17:57:21.482Z,24.13
2018-06-14T17:59:49.976Z,24.70
2018-06-14T18:02:18.329Z,22.70
2018-06-14T18:04:46.709Z,24.40
2018-06-14T18:07:15.601Z,25.10
2018-06-14T18:09:43.925Z,25.67
2018-06-14T18:12:12.278Z,23.00
2018-06-14T18:14:41.275Z,23.53
2018-06-14T18:17:09.660Z,21.67
2018-06-14T18:19:38.191Z,22.93
2018-06-14T18:22:06.541Z,24.97
2018-06-14T18:24:34.861Z,23.57
2018-06-14T18:27:03.334Z,25.80
2018-06-14T18:29:31.664Z,24.80
2018-06-14T18:32:00.421Z,23.53
2018-06-14T18:34:28.874Z,22.23
2018-06-14T18:36:57.257Z,24.60
2018-06-14T18:39:25.581Z,24.20
2018-06-14T18:41:53.918Z,24.80
2018-06-14T18:44:22.305Z,24.50
2018-06-14T18:46:51.157Z,25.27
2018-06-14T18:49:20.265Z,26.73
2018-06-14T18:51:48.561Z,25.27
2018-06-14T18:54:16.877Z,24.73
2018-06-14T18:56:45.234Z,24.93
2018-06-14T18:59:13.685Z,27.00
2018-06-14T19:01:42.033Z,27.87
2018-06-14T19:04:10.381Z,25.37
2018-06-14T19:06:38.829Z,24.30
2018-06-14T19:09:08.563Z,25.47
2018-06-14T19:11:37.074Z,26.73
2018-06-14T19:14:05.454Z,31.33
2018-06-14T19:16:33.757Z,29.63
2018-06-14T19:19:02.070Z,25.67
2018-06-14T19:21:30.352Z,26.37
2018-06-14T19:24:01.032Z,25.43
2018-06-14T19:26:29.383Z,27.50
2018-06-14T19:28:57.629Z,27.03
2018-06-14T19:31:25.897Z,27.57
2018-06-14T19:33:54.489Z,28.67
2018-06-14T19:36:22.829Z,29.73
2018-06-14T19:38:51.154Z,30.03
2018-06-14T19:41:19.489Z,28.87
2018-06-14T19:43:47.983Z,32.73
2018-06-14T19:46:16.282Z,29.57
2018-06-14T19:48:44.621Z,31.60
2018-06-14T19:51:13.038Z,29.83
2018-06-14T19:53:41.766Z,29.00
2018-06-14T19:56:10.278Z,31.17
2018-06-14T19:58:38.582Z,32.17
2018-06-14T20:01:06.982Z,32.83
2018-06-14T20:03:35.497Z,32.20
2018-06-14T20:06:03.830Z,31.57
2018-06-14T20:08:32.185Z,30.63
2018-06-14T20:11:00.517Z,32.47
2018-06-14T20:13:28.888Z,33.53
2018-06-14T20:15:57.191Z,32.67
2018-06-14T20:18:25.677Z,35.03
2018-06-14T20:20:54.052Z,35.20
2018-06-14T20:23:22.341Z,34.50
2018-06-14T20:25:50.677Z,37.87
2018-06-14T20:28:19.069Z,32.13
2018-06-14T20:30:47.421Z,38.27
2018-06-14T20:33:15.454Z,42.75
2018-06-14T20:35:44.570Z,36.77
2018-06-14T20:38:12.913Z,37.23
2018-06-14T20:40:41.589Z,35.27
2018-06-14T20:43:09.893Z,35.97
2018-06-14T20:45:38.181Z,37.67
2018-06-14T20:48:06.609Z,39.40
2018-06-14T20:50:34.909Z,32.17
2018-06-14T20:53:03.214Z,35.83
2018-06-14T20:55:31.667Z,39.83
2018-06-14T20:57:59.977Z,40.20
2018-06-14T21:00:30.010Z,43.50
2018-06-14T21:02:58.489Z,39.17
2018-06-14T21:05:26.821Z,44.30
2018-06-14T21:07:55.213Z,42.83
2018-06-14T21:10:24.438Z,47.50
2018-06-14T21:12:52.798Z,55.40
2018-06-14T21:15:21.094Z,42.97
2018-06-14T21:17:49.434Z,44.60
2018-06-14T21:20:17.733Z,48.50
2018-06-14T21:22:46.113Z,42.97
2018-06-14T21:25:14.578Z,46.50
2018-06-14T21:27:42.933Z,41.97
2018-06-14T21:30:11.237Z,46.90
2018-06-14T21:32:39.581Z,47.23
2018-06-14T21:35:07.946Z,48.53
2018-06-14T21:37:36.289Z,48.03
2018-06-14T21:40:04.777Z,48.53
2018-06-14T21:42:33.249Z,46.17
2018-06-14T21:45:01.558Z,42.53
2018-06-14T21:47:29.989Z,46.20
2018-06-14T21:49:58.316Z,46.33
2018-06-14T21:52:26.621Z,43.10
2018-06-14T21:54:54.977Z,44.03
2018-06-14T21:57:23.313Z,45.50
2018-06-14T21:59:51.628Z,43.67
2018-06-14T22:02:20.198Z,46.40
2018-06-14T22:04:48.611Z,45.53
2018-06-14T22:07:16.710Z,49.53
2018-06-14T22:09:45.374Z,45.73
2018-06-14T22:12:13.689Z,45.77
2018-06-14T22:14:41.989Z,47.40
2018-06-14T22:17:11.189Z,45.90
2018-06-14T22:19:39.737Z,51.60
2018-06-14T22:22:08.088Z,46.03
2018-06-14T22:24:36.776Z,47.87
2018-06-14T22:27:05.162Z,46.97
2018-06-14T22:29:33.465Z,45.50
2018-06-14T22:32:01.769Z,45.13
2018-06-14T22:34:41.301Z,41.83
2018-06-14T22:37:09.579Z,44.00
2018-06-14T22:39:38.347Z,47.97
2018-06-14T22:42:06.757Z,44.93
2018-06-14T22:44:35.241Z,41.93
2018-06-14T22:47:03.479Z,43.03
2018-06-14T22:49:31.749Z,46.63
2018-06-14T22:53:09.587Z,45.93
2018-06-14T22:55:37.869Z,41.87
2018-06-14T22:58:06.209Z,44.00
2018-06-14T23:01:45.140Z,45.10
2018-06-14T23:04:15.814Z,42.17
2018-06-14T23:06:44.162Z,47.40
2018-06-14T23:10:29.629Z,49.53
2018-06-14T23:12:57.953Z,43.37
2018-06-14T23:15:26.269Z,47.83
2018-06-14T23:17:54.772Z,45.37
2018-06-14T23:20:24.059Z,47.90
2018-06-14T23:22:55.395Z,49.10
2018-06-14T23:25:24.586Z,48.33
2018-06-14T23:27:52.974Z,49.47
2018-06-14T23:30:21.334Z,43.83
2018-06-14T23:32:49.935Z,49.80
2018-06-14T23:35:18.613Z,53.15
2018-06-14T23:37:46.996Z,48.00
2018-06-14T23:40:15.785Z,48.83
2018-06-14T23:42:44.092Z,50.60
2018-06-14T23:45:12.470Z,52.00
2018-06-14T23:47:40.782Z,53.63
2018-06-14T23:50:09.085Z,55.23
2018-06-14T23:52:37.529Z,54.13
2018-06-14T23:55:05.813Z,51.63
2018-06-14T23:57:34.096Z,51.10
